sensor_id;sensor_type;location;lat;lon;timestamp;temperature;humidity
76613;DHT22;65507;48.454;-2.058;2023-11-18T00:00:58;11.60;85.50
76613;DHT22;65507;48.454;-2.058;2023-11-18T00:03:24;11.60;85.50
76613;DHT22;65507;48.454;-2.058;2023-11-18T00:05:50;11.60;85.60
76613;DHT22;65507;48.454;-2.058;2023-11-18T00:08:16;11.70;85.70
76613;DHT22;65507;48.454;-2.058;2023-11-18T00:10:41;11.70;85.70
76613;DHT22;65507;48.454;-2.058;2023-11-18T00:13:07;11.70;85.60
76613;DHT22;65507;48.454;-2.058;2023-11-18T00:15:34;11.70;85.60
76613;DHT22;65507;48.454;-2.058;2023-11-18T00:18:01;11.70;85.70
76613;DHT22;65507;48.454;-2.058;2023-11-18T00:20:26;11.80;85.70
76613;DHT22;65507;48.454;-2.058;2023-11-18T00:22:52;11.80;85.60
76613;DHT22;65507;48.454;-2.058;2023-11-18T00:25:18;11.80;85.70
76613;DHT22;65507;48.454;-2.058;2023-11-18T00:27:44;11.80;85.70
76613;DHT22;65507;48.454;-2.058;2023-11-18T00:30:10;11.80;85.70
76613;DHT22;65507;48.454;-2.058;2023-11-18T00:32:39;11.80;85.70
76613;DHT22;65507;48.454;-2.058;2023-11-18T00:35:05;11.80;85.70
76613;DHT22;65507;48.454;-2.058;2023-11-18T00:37:31;11.80;85.70
76613;DHT22;65507;48.454;-2.058;2023-11-18T00:39:57;11.90;85.70
76613;DHT22;65507;48.454;-2.058;2023-11-18T00:42:23;11.90;85.80
76613;DHT22;65507;48.454;-2.058;2023-11-18T00:44:48;11.90;85.70
76613;DHT22;65507;48.454;-2.058;2023-11-18T00:47:14;12.00;85.80
76613;DHT22;65507;48.454;-2.058;2023-11-18T00:49:40;12.00;85.80
76613;DHT22;65507;48.454;-2.058;2023-11-18T00:52:05;12.00;85.80
76613;DHT22;65507;48.454;-2.058;2023-11-18T00:54:31;12.00;85.80
76613;DHT22;65507;48.454;-2.058;2023-11-18T00:56:57;12.00;85.80
76613;DHT22;65507;48.454;-2.058;2023-11-18T00:59:23;12.00;85.80
76613;DHT22;65507;48.454;-2.058;2023-11-18T01:01:48;12.10;85.90
76613;DHT22;65507;48.454;-2.058;2023-11-18T01:04:15;12.10;86.70
76613;DHT22;65507;48.454;-2.058;2023-11-18T01:06:42;12.20;86.00
76613;DHT22;65507;48.454;-2.058;2023-11-18T01:09:08;12.60;86.10
76613;DHT22;65507;48.454;-2.058;2023-11-18T01:11:35;12.10;85.90
76613;DHT22;65507;48.454;-2.058;2023-11-18T01:14:01;12.10;85.90
76613;DHT22;65507;48.454;-2.058;2023-11-18T01:16:27;12.20;85.80
76613;DHT22;65507;48.454;-2.058;2023-11-18T01:18:54;12.20;85.80
76613;DHT22;65507;48.454;-2.058;2023-11-18T01:21:20;12.20;85.80
76613;DHT22;65507;48.454;-2.058;2023-11-18T01:23:46;12.30;85.90
76613;DHT22;65507;48.454;-2.058;2023-11-18T01:26:12;12.30;85.90
76613;DHT22;65507;48.454;-2.058;2023-11-18T01:28:38;12.30;85.90
76613;DHT22;65507;48.454;-2.058;2023-11-18T01:31:07;12.30;85.90
76613;DHT22;65507;48.454;-2.058;2023-11-18T01:33:36;12.30;86.00
76613;DHT22;65507;48.454;-2.058;2023-11-18T01:36:03;12.30;85.90
76613;DHT22;65507;48.454;-2.058;2023-11-18T01:38:29;12.40;86.00
76613;DHT22;65507;48.454;-2.058;2023-11-18T01:40:56;12.40;85.90
76613;DHT22;65507;48.454;-2.058;2023-11-18T01:43:22;12.40;85.80
76613;DHT22;65507;48.454;-2.058;2023-11-18T01:45:48;12.40;85.80
76613;DHT22;65507;48.454;-2.058;2023-11-18T01:48:14;12.50;86.00
76613;DHT22;65507;48.454;-2.058;2023-11-18T01:50:41;12.50;86.80
76613;DHT22;65507;48.454;-2.058;2023-11-18T01:53:08;12.50;86.00
76613;DHT22;65507;48.454;-2.058;2023-11-18T01:55:35;12.60;86.00
76613;DHT22;65507;48.454;-2.058;2023-11-18T01:58:02;12.60;85.90
76613;DHT22;65507;48.454;-2.058;2023-11-18T02:00:35;12.60;86.00
76613;DHT22;65507;48.454;-2.058;2023-11-18T02:03:04;12.60;86.00
76613;DHT22;65507;48.454;-2.058;2023-11-18T02:05:31;12.70;86.00
76613;DHT22;65507;48.454;-2.058;2023-11-18T02:07:59;12.70;86.00
76613;DHT22;65507;48.454;-2.058;2023-11-18T02:10:26;12.70;85.90
76613;DHT22;65507;48.454;-2.058;2023-11-18T02:13:18;12.70;85.90
76613;DHT22;65507;48.454;-2.058;2023-11-18T02:15:55;12.80;86.00
76613;DHT22;65507;48.454;-2.058;2023-11-18T02:18:25;12.80;86.00
76613;DHT22;65507;48.454;-2.058;2023-11-18T02:20:54;12.80;86.80
76613;DHT22;65507;48.454;-2.058;2023-11-18T02:23:20;12.80;86.00
76613;DHT22;65507;48.454;-2.058;2023-11-18T02:25:47;12.80;86.00
76613;DHT22;65507;48.454;-2.058;2023-11-18T02:28:13;12.90;86.10
76613;DHT22;65507;48.454;-2.058;2023-11-18T02:30:42;12.90;86.00
76613;DHT22;65507;48.454;-2.058;2023-11-18T02:33:27;12.90;86.10
76613;DHT22;65507;48.454;-2.058;2023-11-18T02:36:35;12.90;86.20
76613;DHT22;65507;48.454;-2.058;2023-11-18T02:39:10;12.90;86.20
76613;DHT22;65507;48.454;-2.058;2023-11-18T02:41:42;12.90;86.20
76613;DHT22;65507;48.454;-2.058;2023-11-18T02:44:11;12.90;86.20
76613;DHT22;65507;48.454;-2.058;2023-11-18T02:46:38;12.90;86.30
76613;DHT22;65507;48.454;-2.058;2023-11-18T02:49:04;12.90;86.40
76613;DHT22;65507;48.454;-2.058;2023-11-18T02:51:30;12.90;86.40
76613;DHT22;65507;48.454;-2.058;2023-11-18T02:54:07;13.00;86.50
76613;DHT22;65507;48.454;-2.058;2023-11-18T02:56:36;13.00;86.50
76613;DHT22;65507;48.454;-2.058;2023-11-18T02:59:02;13.00;86.50
76613;DHT22;65507;48.454;-2.058;2023-11-18T03:01:31;13.00;86.50
76613;DHT22;65507;48.454;-2.058;2023-11-18T03:03:57;13.00;86.50
76613;DHT22;65507;48.454;-2.058;2023-11-18T03:06:23;13.00;86.50
76613;DHT22;65507;48.454;-2.058;2023-11-18T03:08:50;13.10;86.60
76613;DHT22;65507;48.454;-2.058;2023-11-18T03:11:16;13.10;86.60
76613;DHT22;65507;48.454;-2.058;2023-11-18T03:13:42;13.10;86.60
76613;DHT22;65507;48.454;-2.058;2023-11-18T03:16:08;13.10;86.70
76613;DHT22;65507;48.454;-2.058;2023-11-18T03:18:38;13.10;86.70
76613;DHT22;65507;48.454;-2.058;2023-11-18T03:21:06;13.20;86.70
76613;DHT22;65507;48.454;-2.058;2023-11-18T03:23:32;13.10;86.70
76613;DHT22;65507;48.454;-2.058;2023-11-18T03:25:58;13.20;86.70
76613;DHT22;65507;48.454;-2.058;2023-11-18T03:28:23;13.20;86.70
76613;DHT22;65507;48.454;-2.058;2023-11-18T03:30:49;13.20;86.70
76613;DHT22;65507;48.454;-2.058;2023-11-18T03:33:15;13.30;86.80
76613;DHT22;65507;48.454;-2.058;2023-11-18T03:35:40;13.30;86.80
76613;DHT22;65507;48.454;-2.058;2023-11-18T03:38:06;13.30;86.70
76613;DHT22;65507;48.454;-2.058;2023-11-18T03:40:32;13.30;86.80
76613;DHT22;65507;48.454;-2.058;2023-11-18T03:43:00;13.40;86.80
76613;DHT22;65507;48.454;-2.058;2023-11-18T03:45:26;13.40;86.80
76613;DHT22;65507;48.454;-2.058;2023-11-18T03:47:51;13.40;86.80
76613;DHT22;65507;48.454;-2.058;2023-11-18T03:50:17;13.40;86.80
76613;DHT22;65507;48.454;-2.058;2023-11-18T03:52:43;13.40;86.80
76613;DHT22;65507;48.454;-2.058;2023-11-18T03:55:09;13.50;86.90
76613;DHT22;65507;48.454;-2.058;2023-11-18T03:57:34;13.50;86.90
76613;DHT22;65507;48.454;-2.058;2023-11-18T04:00:00;13.50;86.90
76613;DHT22;65507;48.454;-2.058;2023-11-18T04:02:26;13.50;86.90
76613;DHT22;65507;48.454;-2.058;2023-11-18T04:04:51;13.60;87.00
76613;DHT22;65507;48.454;-2.058;2023-11-18T04:07:17;13.60;86.90
76613;DHT22;65507;48.454;-2.058;2023-11-18T04:09:43;13.60;86.90
76613;DHT22;65507;48.454;-2.058;2023-11-18T04:12:09;13.60;86.90
76613;DHT22;65507;48.454;-2.058;2023-11-18T04:14:36;13.60;86.90
76613;DHT22;65507;48.454;-2.058;2023-11-18T04:17:02;13.70;87.90
76613;DHT22;65507;48.454;-2.058;2023-11-18T04:19:28;13.70;87.00
76613;DHT22;65507;48.454;-2.058;2023-11-18T04:21:53;13.70;87.00
76613;DHT22;65507;48.454;-2.058;2023-11-18T04:24:19;13.70;87.00
76613;DHT22;65507;48.454;-2.058;2023-11-18T04:26:45;13.70;87.00
76613;DHT22;65507;48.454;-2.058;2023-11-18T04:29:11;13.70;87.10
76613;DHT22;65507;48.454;-2.058;2023-11-18T04:31:37;13.70;87.10
76613;DHT22;65507;48.454;-2.058;2023-11-18T04:34:03;13.80;87.20
76613;DHT22;65507;48.454;-2.058;2023-11-18T04:36:29;13.80;87.10
76613;DHT22;65507;48.454;-2.058;2023-11-18T04:38:57;13.80;87.10
76613;DHT22;65507;48.454;-2.058;2023-11-18T04:41:23;13.80;87.20
76613;DHT22;65507;48.454;-2.058;2023-11-18T04:43:49;13.80;87.20
76613;DHT22;65507;48.454;-2.058;2023-11-18T04:46:15;13.80;87.20
76613;DHT22;65507;48.454;-2.058;2023-11-18T04:48:41;13.90;87.20
76613;DHT22;65507;48.454;-2.058;2023-11-18T04:51:07;13.90;87.30
76613;DHT22;65507;48.454;-2.058;2023-11-18T04:53:32;13.90;87.30
76613;DHT22;65507;48.454;-2.058;2023-11-18T04:55:59;13.90;87.30
76613;DHT22;65507;48.454;-2.058;2023-11-18T04:58:25;13.90;87.30
76613;DHT22;65507;48.454;-2.058;2023-11-18T05:00:50;13.90;87.30
76613;DHT22;65507;48.454;-2.058;2023-11-18T05:03:16;13.90;87.40
76613;DHT22;65507;48.454;-2.058;2023-11-18T05:05:42;13.90;87.30
76613;DHT22;65507;48.454;-2.058;2023-11-18T05:08:18;14.00;87.40
76613;DHT22;65507;48.454;-2.058;2023-11-18T05:10:47;14.00;87.40
76613;DHT22;65507;48.454;-2.058;2023-11-18T05:13:13;14.00;87.50
76613;DHT22;65507;48.454;-2.058;2023-11-18T05:15:45;14.00;87.50
76613;DHT22;65507;48.454;-2.058;2023-11-18T05:18:12;14.00;87.50
76613;DHT22;65507;48.454;-2.058;2023-11-18T05:20:43;14.00;87.50
76613;DHT22;65507;48.454;-2.058;2023-11-18T05:23:09;14.00;87.50
76613;DHT22;65507;48.454;-2.058;2023-11-18T05:25:41;14.10;87.60
76613;DHT22;65507;48.454;-2.058;2023-11-18T05:28:08;14.10;88.20
76613;DHT22;65507;48.454;-2.058;2023-11-18T05:30:35;14.00;87.70
76613;DHT22;65507;48.454;-2.058;2023-11-18T05:33:04;14.10;87.70
76613;DHT22;65507;48.454;-2.058;2023-11-18T05:35:31;14.10;87.80
76613;DHT22;65507;48.454;-2.058;2023-11-18T05:37:58;14.10;87.80
76613;DHT22;65507;48.454;-2.058;2023-11-18T05:40:24;14.10;87.80
76613;DHT22;65507;48.454;-2.058;2023-11-18T05:42:51;14.10;87.80
76613;DHT22;65507;48.454;-2.058;2023-11-18T05:45:18;14.10;87.90
76613;DHT22;65507;48.454;-2.058;2023-11-18T05:47:56;14.10;87.80
76613;DHT22;65507;48.454;-2.058;2023-11-18T05:50:23;14.10;87.80
76613;DHT22;65507;48.454;-2.058;2023-11-18T05:52:53;14.20;87.90
76613;DHT22;65507;48.454;-2.058;2023-11-18T05:55:19;14.20;87.90
76613;DHT22;65507;48.454;-2.058;2023-11-18T05:57:45;14.20;88.00
76613;DHT22;65507;48.454;-2.058;2023-11-18T06:00:15;14.20;87.90
76613;DHT22;65507;48.454;-2.058;2023-11-18T06:02:41;14.20;87.90
76613;DHT22;65507;48.454;-2.058;2023-11-18T06:05:08;14.20;87.90
76613;DHT22;65507;48.454;-2.058;2023-11-18T06:07:34;14.30;88.00
76613;DHT22;65507;48.454;-2.058;2023-11-18T06:10:00;14.30;88.10
76613;DHT22;65507;48.454;-2.058;2023-11-18T06:12:27;14.30;88.10
76613;DHT22;65507;48.454;-2.058;2023-11-18T06:14:53;14.30;88.00
76613;DHT22;65507;48.454;-2.058;2023-11-18T06:17:18;14.30;88.10
76613;DHT22;65507;48.454;-2.058;2023-11-18T06:19:44;14.30;88.10
76613;DHT22;65507;48.454;-2.058;2023-11-18T06:22:10;14.30;88.10
76613;DHT22;65507;48.454;-2.058;2023-11-18T06:24:36;14.30;88.20
76613;DHT22;65507;48.454;-2.058;2023-11-18T06:27:05;14.30;88.10
76613;DHT22;65507;48.454;-2.058;2023-11-18T06:29:34;14.30;88.20
76613;DHT22;65507;48.454;-2.058;2023-11-18T06:32:00;14.40;88.20
76613;DHT22;65507;48.454;-2.058;2023-11-18T06:34:25;14.40;88.20
76613;DHT22;65507;48.454;-2.058;2023-11-18T06:36:53;14.40;88.30
76613;DHT22;65507;48.454;-2.058;2023-11-18T06:39:19;14.40;88.40
76613;DHT22;65507;48.454;-2.058;2023-11-18T06:41:47;14.40;88.30
76613;DHT22;65507;48.454;-2.058;2023-11-18T06:44:16;14.50;88.30
76613;DHT22;65507;48.454;-2.058;2023-11-18T06:46:49;14.40;88.30
76613;DHT22;65507;48.454;-2.058;2023-11-18T06:49:16;14.40;88.30
76613;DHT22;65507;48.454;-2.058;2023-11-18T06:51:45;14.50;88.30
76613;DHT22;65507;48.454;-2.058;2023-11-18T06:54:10;14.50;88.40
76613;DHT22;65507;48.454;-2.058;2023-11-18T06:56:42;14.50;88.40
76613;DHT22;65507;48.454;-2.058;2023-11-18T06:59:09;14.50;88.40
76613;DHT22;65507;48.454;-2.058;2023-11-18T07:01:38;14.50;88.50
76613;DHT22;65507;48.454;-2.058;2023-11-18T07:04:06;14.50;88.50
76613;DHT22;65507;48.454;-2.058;2023-11-18T07:06:34;14.50;88.50
76613;DHT22;65507;48.454;-2.058;2023-11-18T07:09:04;14.60;88.50
76613;DHT22;65507;48.454;-2.058;2023-11-18T07:11:38;14.60;88.50
76613;DHT22;65507;48.454;-2.058;2023-11-18T07:14:04;14.60;88.60
76613;DHT22;65507;48.454;-2.058;2023-11-18T07:16:29;14.60;89.50
76613;DHT22;65507;48.454;-2.058;2023-11-18T07:18:55;14.70;88.70
76613;DHT22;65507;48.454;-2.058;2023-11-18T07:21:20;14.60;88.70
76613;DHT22;65507;48.454;-2.058;2023-11-18T07:23:46;14.60;88.60
76613;DHT22;65507;48.454;-2.058;2023-11-18T07:26:12;14.70;88.70
76613;DHT22;65507;48.454;-2.058;2023-11-18T07:28:39;14.70;88.70
76613;DHT22;65507;48.454;-2.058;2023-11-18T07:31:05;14.70;88.70
76613;DHT22;65507;48.454;-2.058;2023-11-18T07:33:31;14.70;88.70
76613;DHT22;65507;48.454;-2.058;2023-11-18T07:35:58;14.80;88.70
76613;DHT22;65507;48.454;-2.058;2023-11-18T07:38:24;14.80;88.70
76613;DHT22;65507;48.454;-2.058;2023-11-18T07:40:49;14.80;88.80
76613;DHT22;65507;48.454;-2.058;2023-11-18T07:43:18;14.80;88.70
76613;DHT22;65507;48.454;-2.058;2023-11-18T07:45:47;14.80;89.60
76613;DHT22;65507;48.454;-2.058;2023-11-18T07:48:15;14.90;88.70
76613;DHT22;65507;48.454;-2.058;2023-11-18T07:50:43;14.90;88.80
76613;DHT22;65507;48.454;-2.058;2023-11-18T07:53:12;14.90;88.70
76613;DHT22;65507;48.454;-2.058;2023-11-18T07:55:38;14.90;88.70
76613;DHT22;65507;48.454;-2.058;2023-11-18T07:58:06;15.00;88.80
76613;DHT22;65507;48.454;-2.058;2023-11-18T08:00:40;15.00;88.70
76613;DHT22;65507;48.454;-2.058;2023-11-18T08:03:07;15.00;88.70
76613;DHT22;65507;48.454;-2.058;2023-11-18T08:05:37;15.10;88.70
76613;DHT22;65507;48.454;-2.058;2023-11-18T08:08:07;15.10;88.70
76613;DHT22;65507;48.454;-2.058;2023-11-18T08:10:34;15.10;88.70
76613;DHT22;65507;48.454;-2.058;2023-11-18T08:13:04;15.20;88.70
76613;DHT22;65507;48.454;-2.058;2023-11-18T08:15:29;15.20;88.70
76613;DHT22;65507;48.454;-2.058;2023-11-18T08:17:56;15.20;88.70
76613;DHT22;65507;48.454;-2.058;2023-11-18T08:20:22;15.20;88.80
76613;DHT22;65507;48.454;-2.058;2023-11-18T08:22:50;15.30;88.80
76613;DHT22;65507;48.454;-2.058;2023-11-18T08:25:16;15.30;88.70
76613;DHT22;65507;48.454;-2.058;2023-11-18T08:27:43;15.30;88.70
76613;DHT22;65507;48.454;-2.058;2023-11-18T08:30:11;15.30;88.60
76613;DHT22;65507;48.454;-2.058;2023-11-18T08:32:38;15.40;88.70
76613;DHT22;65507;48.454;-2.058;2023-11-18T08:35:07;15.40;88.70
76613;DHT22;65507;48.454;-2.058;2023-11-18T08:37:34;15.40;89.60
76613;DHT22;65507;48.454;-2.058;2023-11-18T08:40:05;15.40;88.80
76613;DHT22;65507;48.454;-2.058;2023-11-18T08:42:48;15.50;88.80
76613;DHT22;65507;48.454;-2.058;2023-11-18T08:45:23;15.50;88.80
76613;DHT22;65507;48.454;-2.058;2023-11-18T08:47:59;15.50;88.80
76613;DHT22;65507;48.454;-2.058;2023-11-18T08:50:27;15.50;88.80
76613;DHT22;65507;48.454;-2.058;2023-11-18T08:52:55;15.50;88.80
76613;DHT22;65507;48.454;-2.058;2023-11-18T08:55:25;15.50;88.80
76613;DHT22;65507;48.454;-2.058;2023-11-18T08:58:04;15.60;88.90
76613;DHT22;65507;48.454;-2.058;2023-11-18T09:00:41;15.50;88.80
76613;DHT22;65507;48.454;-2.058;2023-11-18T09:03:11;15.60;88.80
76613;DHT22;65507;48.454;-2.058;2023-11-18T09:05:49;15.60;88.90
76613;DHT22;65507;48.454;-2.058;2023-11-18T09:10:53;15.60;88.90
76613;DHT22;65507;48.454;-2.058;2023-11-18T09:13:24;15.60;89.00
76613;DHT22;65507;48.454;-2.058;2023-11-18T09:15:56;15.60;89.00
76613;DHT22;65507;48.454;-2.058;2023-11-18T09:18:23;15.60;89.00
76613;DHT22;65507;48.454;-2.058;2023-11-18T09:20:50;15.60;88.90
76613;DHT22;65507;48.454;-2.058;2023-11-18T09:23:18;15.60;88.90
76613;DHT22;65507;48.454;-2.058;2023-11-18T09:25:46;15.70;89.00
76613;DHT22;65507;48.454;-2.058;2023-11-18T09:28:16;15.70;88.90
76613;DHT22;65507;48.454;-2.058;2023-11-18T09:30:42;15.70;88.90
76613;DHT22;65507;48.454;-2.058;2023-11-18T09:33:24;15.80;88.90
76613;DHT22;65507;48.454;-2.058;2023-11-18T09:36:06;15.80;88.90
76613;DHT22;65507;48.454;-2.058;2023-11-18T09:38:37;15.80;88.80
76613;DHT22;65507;48.454;-2.058;2023-11-18T09:41:04;15.90;88.90
76613;DHT22;65507;48.454;-2.058;2023-11-18T09:43:35;15.90;88.90
76613;DHT22;65507;48.454;-2.058;2023-11-18T09:46:18;15.80;88.90
76613;DHT22;65507;48.454;-2.058;2023-11-18T09:48:53;15.90;89.00
76613;DHT22;65507;48.454;-2.058;2023-11-18T09:51:23;15.90;89.00
76613;DHT22;65507;48.454;-2.058;2023-11-18T09:53:51;15.90;89.00
76613;DHT22;65507;48.454;-2.058;2023-11-18T10:00:00;15.90;89.10
76613;DHT22;65507;48.454;-2.058;2023-11-18T10:02:39;15.90;89.10
76613;DHT22;65507;48.454;-2.058;2023-11-18T10:05:07;15.90;89.10
76613;DHT22;65507;48.454;-2.058;2023-11-18T10:07:39;15.90;89.10
76613;DHT22;65507;48.454;-2.058;2023-11-18T10:10:07;16.00;89.10
76613;DHT22;65507;48.454;-2.058;2023-11-18T10:12:43;16.00;89.10
76613;DHT22;65507;48.454;-2.058;2023-11-18T10:15:21;16.00;89.10
76613;DHT22;65507;48.454;-2.058;2023-11-18T10:17:51;16.00;89.10
76613;DHT22;65507;48.454;-2.058;2023-11-18T10:20:46;16.10;89.10
76613;DHT22;65507;48.454;-2.058;2023-11-18T10:23:14;16.10;89.00
76613;DHT22;65507;48.454;-2.058;2023-11-18T10:25:54;16.10;89.00
76613;DHT22;65507;48.454;-2.058;2023-11-18T10:28:26;16.20;88.90
76613;DHT22;65507;48.454;-2.058;2023-11-18T10:30:59;16.20;88.80
76613;DHT22;65507;48.454;-2.058;2023-11-18T10:33:33;16.20;88.80
76613;DHT22;65507;48.454;-2.058;2023-11-18T10:36:01;16.30;88.80
76613;DHT22;65507;48.454;-2.058;2023-11-18T10:38:33;16.30;88.80
76613;DHT22;65507;48.454;-2.058;2023-11-18T10:41:04;16.30;88.70
76613;DHT22;65507;48.454;-2.058;2023-11-18T10:43:31;16.40;88.70
76613;DHT22;65507;48.454;-2.058;2023-11-18T10:46:09;16.40;88.70
76613;DHT22;65507;48.454;-2.058;2023-11-18T10:48:45;16.40;88.70
76613;DHT22;65507;48.454;-2.058;2023-11-18T10:51:19;16.50;88.70
76613;DHT22;65507;48.454;-2.058;2023-11-18T10:53:51;16.50;88.70
76613;DHT22;65507;48.454;-2.058;2023-11-18T10:56:29;16.50;88.70
76613;DHT22;65507;48.454;-2.058;2023-11-18T10:58:56;16.50;88.70
76613;DHT22;65507;48.454;-2.058;2023-11-18T11:01:32;16.50;88.70
76613;DHT22;65507;48.454;-2.058;2023-11-18T11:03:58;16.60;88.70
76613;DHT22;65507;48.454;-2.058;2023-11-18T11:06:25;16.60;88.60
76613;DHT22;65507;48.454;-2.058;2023-11-18T11:08:51;16.60;88.60
76613;DHT22;65507;48.454;-2.058;2023-11-18T11:11:22;16.70;88.70
76613;DHT22;65507;48.454;-2.058;2023-11-18T11:13:50;16.70;88.50
76613;DHT22;65507;48.454;-2.058;2023-11-18T11:16:23;16.80;88.60
76613;DHT22;65507;48.454;-2.058;2023-11-18T11:18:55;16.80;88.60
76613;DHT22;65507;48.454;-2.058;2023-11-18T11:21:27;16.80;88.50
76613;DHT22;65507;48.454;-2.058;2023-11-18T11:24:01;16.90;88.50
76613;DHT22;65507;48.454;-2.058;2023-11-18T11:29:39;16.90;88.50
76613;DHT22;65507;48.454;-2.058;2023-11-18T11:32:11;16.90;88.40
76613;DHT22;65507;48.454;-2.058;2023-11-18T11:34:53;17.00;88.40
76613;DHT22;65507;48.454;-2.058;2023-11-18T11:37:24;17.00;88.40
76613;DHT22;65507;48.454;-2.058;2023-11-18T11:39:53;17.00;88.40
76613;DHT22;65507;48.454;-2.058;2023-11-18T11:42:20;17.00;88.40
76613;DHT22;65507;48.454;-2.058;2023-11-18T11:44:50;17.00;88.50
76613;DHT22;65507;48.454;-2.058;2023-11-18T11:47:19;17.00;88.50
76613;DHT22;65507;48.454;-2.058;2023-11-18T11:50:11;17.00;88.50
76613;DHT22;65507;48.454;-2.058;2023-11-18T11:52:44;17.00;88.50
76613;DHT22;65507;48.454;-2.058;2023-11-18T11:55:23;17.00;88.50
76613;DHT22;65507;48.454;-2.058;2023-11-18T11:57:54;17.00;88.50
76613;DHT22;65507;48.454;-2.058;2023-11-18T12:00:23;17.00;88.60
76613;DHT22;65507;48.454;-2.058;2023-11-18T12:02:52;17.00;88.50
76613;DHT22;65507;48.454;-2.058;2023-11-18T12:05:25;17.00;88.50
76613;DHT22;65507;48.454;-2.058;2023-11-18T12:07:55;17.00;88.50
76613;DHT22;65507;48.454;-2.058;2023-11-18T12:10:21;17.00;88.50
76613;DHT22;65507;48.454;-2.058;2023-11-18T12:12:48;17.00;88.50
76613;DHT22;65507;48.454;-2.058;2023-11-18T12:15:14;17.10;88.50
76613;DHT22;65507;48.454;-2.058;2023-11-18T12:23:09;17.10;88.40
76613;DHT22;65507;48.454;-2.058;2023-11-18T12:25:46;17.10;88.40
76613;DHT22;65507;48.454;-2.058;2023-11-18T12:28:16;17.10;88.50
76613;DHT22;65507;48.454;-2.058;2023-11-18T12:30:43;17.10;88.50
76613;DHT22;65507;48.454;-2.058;2023-11-18T12:33:20;17.10;88.60
76613;DHT22;65507;48.454;-2.058;2023-11-18T12:41:38;17.10;88.70
76613;DHT22;65507;48.454;-2.058;2023-11-18T12:47:01;17.10;88.70
76613;DHT22;65507;48.454;-2.058;2023-11-18T12:49:56;17.10;88.70
76613;DHT22;65507;48.454;-2.058;2023-11-18T12:52:22;17.10;88.70
76613;DHT22;65507;48.454;-2.058;2023-11-18T12:54:49;17.20;88.70
76613;DHT22;65507;48.454;-2.058;2023-11-18T12:57:20;17.20;88.60
76613;DHT22;65507;48.454;-2.058;2023-11-18T12:59:48;17.20;88.70
76613;DHT22;65507;48.454;-2.058;2023-11-18T13:02:15;17.20;88.60
76613;DHT22;65507;48.454;-2.058;2023-11-18T13:04:45;17.20;88.70
76613;DHT22;65507;48.454;-2.058;2023-11-18T13:07:21;17.10;88.70
76613;DHT22;65507;48.454;-2.058;2023-11-18T13:09:47;17.10;88.80
76613;DHT22;65507;48.454;-2.058;2023-11-18T13:12:14;17.10;88.80
76613;DHT22;65507;48.454;-2.058;2023-11-18T13:14:41;17.10;88.80
76613;DHT22;65507;48.454;-2.058;2023-11-18T13:17:13;17.10;88.80
76613;DHT22;65507;48.454;-2.058;2023-11-18T13:19:41;17.10;88.90
76613;DHT22;65507;48.454;-2.058;2023-11-18T13:22:14;17.10;88.90
76613;DHT22;65507;48.454;-2.058;2023-11-18T13:24:41;17.10;89.00
76613;DHT22;65507;48.454;-2.058;2023-11-18T13:27:10;17.10;89.00
76613;DHT22;65507;48.454;-2.058;2023-11-18T13:29:37;17.10;89.00
76613;DHT22;65507;48.454;-2.058;2023-11-18T13:32:05;17.10;89.00
76613;DHT22;65507;48.454;-2.058;2023-11-18T13:34:35;17.10;89.00
76613;DHT22;65507;48.454;-2.058;2023-11-18T13:37:04;17.10;89.00
76613;DHT22;65507;48.454;-2.058;2023-11-18T13:39:31;17.10;89.10
76613;DHT22;65507;48.454;-2.058;2023-11-18T13:41:57;17.10;89.00
76613;DHT22;65507;48.454;-2.058;2023-11-18T13:44:38;17.10;89.00
76613;DHT22;65507;48.454;-2.058;2023-11-18T13:47:07;17.10;89.00
76613;DHT22;65507;48.454;-2.058;2023-11-18T13:49:40;17.10;89.00
76613;DHT22;65507;48.454;-2.058;2023-11-18T13:52:07;17.10;89.00
76613;DHT22;65507;48.454;-2.058;2023-11-18T13:54:35;17.10;89.00
76613;DHT22;65507;48.454;-2.058;2023-11-18T13:57:02;17.10;89.00
76613;DHT22;65507;48.454;-2.058;2023-11-18T13:59:29;17.10;88.90
76613;DHT22;65507;48.454;-2.058;2023-11-18T14:01:56;17.20;89.00
76613;DHT22;65507;48.454;-2.058;2023-11-18T14:04:26;17.20;88.90
76613;DHT22;65507;48.454;-2.058;2023-11-18T14:06:56;17.20;89.00
76613;DHT22;65507;48.454;-2.058;2023-11-18T14:09:22;17.20;88.90
76613;DHT22;65507;48.454;-2.058;2023-11-18T14:11:51;17.20;88.90
76613;DHT22;65507;48.454;-2.058;2023-11-18T14:14:16;17.20;88.80
76613;DHT22;65507;48.454;-2.058;2023-11-18T14:16:43;17.20;88.90
76613;DHT22;65507;48.454;-2.058;2023-11-18T14:19:10;17.20;88.80
76613;DHT22;65507;48.454;-2.058;2023-11-18T14:21:36;17.20;88.80
76613;DHT22;65507;48.454;-2.058;2023-11-18T14:24:02;17.20;88.80
76613;DHT22;65507;48.454;-2.058;2023-11-18T14:26:29;17.20;88.80
76613;DHT22;65507;48.454;-2.058;2023-11-18T14:28:56;17.30;88.80
76613;DHT22;65507;48.454;-2.058;2023-11-18T14:31:24;17.30;88.80
76613;DHT22;65507;48.454;-2.058;2023-11-18T14:33:50;17.30;88.80
76613;DHT22;65507;48.454;-2.058;2023-11-18T14:36:17;17.30;89.60
76613;DHT22;65507;48.454;-2.058;2023-11-18T14:38:42;17.40;88.70
76613;DHT22;65507;48.454;-2.058;2023-11-18T14:41:10;17.40;88.70
76613;DHT22;65507;48.454;-2.058;2023-11-18T14:43:36;17.40;88.60
76613;DHT22;65507;48.454;-2.058;2023-11-18T14:46:02;17.30;88.70
76613;DHT22;65507;48.454;-2.058;2023-11-18T14:48:29;17.40;88.70
76613;DHT22;65507;48.454;-2.058;2023-11-18T14:50:55;17.40;88.60
76613;DHT22;65507;48.454;-2.058;2023-11-18T14:53:22;17.40;88.60
76613;DHT22;65507;48.454;-2.058;2023-11-18T14:55:48;17.40;88.60
76613;DHT22;65507;48.454;-2.058;2023-11-18T14:58:14;17.50;88.50
76613;DHT22;65507;48.454;-2.058;2023-11-18T15:00:40;17.40;88.50
76613;DHT22;65507;48.454;-2.058;2023-11-18T15:03:08;17.50;88.50
76613;DHT22;65507;48.454;-2.058;2023-11-18T15:05:34;17.50;88.50
76613;DHT22;65507;48.454;-2.058;2023-11-18T15:08:00;17.50;88.60
76613;DHT22;65507;48.454;-2.058;2023-11-18T15:10:27;17.50;88.70
76613;DHT22;65507;48.454;-2.058;2023-11-18T15:12:54;17.50;88.70
76613;DHT22;65507;48.454;-2.058;2023-11-18T15:15:21;17.50;88.70
76613;DHT22;65507;48.454;-2.058;2023-11-18T15:17:47;17.40;88.70
76613;DHT22;65507;48.454;-2.058;2023-11-18T15:20:17;17.40;88.70
76613;DHT22;65507;48.454;-2.058;2023-11-18T15:22:44;17.40;88.70
76613;DHT22;65507;48.454;-2.058;2023-11-18T15:25:11;17.40;88.80
76613;DHT22;65507;48.454;-2.058;2023-11-18T15:27:42;17.40;88.80
76613;DHT22;65507;48.454;-2.058;2023-11-18T15:30:10;17.30;88.80
76613;DHT22;65507;48.454;-2.058;2023-11-18T15:32:37;17.30;88.90
76613;DHT22;65507;48.454;-2.058;2023-11-18T15:35:03;17.30;88.90
76613;DHT22;65507;48.454;-2.058;2023-11-18T15:37:36;17.30;88.90
76613;DHT22;65507;48.454;-2.058;2023-11-18T15:40:07;17.30;88.90
76613;DHT22;65507;48.454;-2.058;2023-11-18T15:42:37;17.30;89.00
76613;DHT22;65507;48.454;-2.058;2023-11-18T15:45:07;17.30;89.00
76613;DHT22;65507;48.454;-2.058;2023-11-18T15:47:35;17.30;89.00